sensor_id;sensor_type;location;lat;lon;timestamp;P1;durP1;ratioP1;P2;durP2;ratioP2
23252;SDS011;11795;47.054;15.408;2024-02-15T00:00:00;7.7;;;4.6;;
23252;SDS011;11795;47.054;15.408;2024-02-15T00:02:00;7.7;;;4.6;;
23252;SDS011;11795;47.054;15.408;2024-02-15T00:04:00;8.0;;;5.0;;
23252;SDS011;11795;47.054;15.408;2024-02-15T00:06:00;8.0;;;5.0;;
23252;SDS011;11795;47.054;15.408;2024-02-15T00:08:00;8.0;;;5.0;;
23252;SDS011;11795;47.054;15.408;2024-02-15T00:10:00;7.6;;;5.1;;
23252;SDS011;11795;47.054;15.408;2024-02-15T00:12:00;7.6;;;5.1;;
23252;SDS011;11795;47.054;15.408;2024-02-15T00:14:00;9.6;;;5.6;;
23252;SDS011;11795;47.054;15.408;2024-02-15T00:16:00;9.6;;;5.6;;
23252;SDS011;11795;47.054;15.408;2024-02-15T00:18:00;9.6;;;5.6;;
23252;SDS011;11795;47.054;15.408;2024-02-15T00:20:01;8.4;;;4.9;;
23252;SDS011;11795;47.054;15.408;2024-02-15T00:22:01;8.4;;;4.9;;
23252;SDS011;11795;47.054;15.408;2024-02-15T00:24:00;6.9;;;4.7;;
23252;SDS011;11795;47.054;15.408;2024-02-15T00:26:00;6.9;;;4.7;;
23252;SDS011;11795;47.054;15.408;2024-02-15T00:28:01;6.9;;;4.7;;
23252;SDS011;11795;47.054;15.408;2024-02-15T00:30:00;6.3;;;4.7;;
23252;SDS011;11795;47.054;15.408;2024-02-15T00:32:00;6.3;;;4.7;;
23252;SDS011;11795;47.054;15.408;2024-02-15T00:34:02;7.5;;;5.0;;
23252;SDS011;11795;47.054;15.408;2024-02-15T00:36:01;7.5;;;5.0;;
23252;SDS011;11795;47.054;15.408;2024-02-15T00:38:00;7.5;;;5.0;;
23252;SDS011;11795;47.054;15.408;2024-02-15T00:40:00;8.0;;;5.0;;
23252;SDS011;11795;47.054;15.408;2024-02-15T00:42:00;8.0;;;5.0;;
23252;SDS011;11795;47.054;15.408;2024-02-15T00:44:00;6.1;;;4.4;;
23252;SDS011;11795;47.054;15.408;2024-02-15T00:46:00;6.1;;;4.4;;
23252;SDS011;11795;47.054;15.408;2024-02-15T00:48:00;6.1;;;4.4;;
23252;SDS011;11795;47.054;15.408;2024-02-15T00:50:00;6.9;;;4.4;;
23252;SDS011;11795;47.054;15.408;2024-02-15T00:52:00;6.9;;;4.4;;
23252;SDS011;11795;47.054;15.408;2024-02-15T00:54:00;6.2;;;4.1;;
23252;SDS011;11795;47.054;15.408;2024-02-15T00:56:00;6.2;;;4.1;;
23252;SDS011;11795;47.054;15.408;2024-02-15T00:58:00;6.2;;;4.1;;
23252;SDS011;11795;47.054;15.408;2024-02-15T01:00:02;5.2;;;3.8;;
23252;SDS011;11795;47.054;15.408;2024-02-15T01:02:02;5.2;;;3.8;;
23252;SDS011;11795;47.054;15.408;2024-02-15T01:04:00;6.7;;;4.5;;
23252;SDS011;11795;47.054;15.408;2024-02-15T01:06:00;6.7;;;4.5;;
23252;SDS011;11795;47.054;15.408;2024-02-15T01:08:00;6.7;;;4.5;;
23252;SDS011;11795;47.054;15.408;2024-02-15T01:10:00;5.2;;;3.9;;
23252;SDS011;11795;47.054;15.408;2024-02-15T01:12:00;5.2;;;3.9;;
23252;SDS011;11795;47.054;15.408;2024-02-15T01:14:00;5.5;;;4.1;;
23252;SDS011;11795;47.054;15.408;2024-02-15T01:16:03;5.5;;;4.1;;
23252;SDS011;11795;47.054;15.408;2024-02-15T01:18:00;5.5;;;4.1;;
23252;SDS011;11795;47.054;15.408;2024-02-15T01:20:00;7.2;;;4.1;;
23252;SDS011;11795;47.054;15.408;2024-02-15T01:22:00;7.2;;;4.1;;
23252;SDS011;11795;47.054;15.408;2024-02-15T01:24:00;5.8;;;3.7;;
23252;SDS011;11795;47.054;15.408;2024-02-15T01:26:01;5.8;;;3.7;;
23252;SDS011;11795;47.054;15.408;2024-02-15T01:28:02;5.8;;;3.7;;
23252;SDS011;11795;47.054;15.408;2024-02-15T01:30:00;5.6;;;4.2;;
23252;SDS011;11795;47.054;15.408;2024-02-15T01:32:01;5.6;;;4.2;;
23252;SDS011;11795;47.054;15.408;2024-02-15T01:34:00;4.6;;;3.5;;
23252;SDS011;11795;47.054;15.408;2024-02-15T01:36:00;4.6;;;3.5;;
23252;SDS011;11795;47.054;15.408;2024-02-15T01:38:00;4.6;;;3.5;;
23252;SDS011;11795;47.054;15.408;2024-02-15T01:40:01;4.7;;;3.6;;
23252;SDS011;11795;47.054;15.408;2024-02-15T01:42:03;4.7;;;3.6;;
23252;SDS011;11795;47.054;15.408;2024-02-15T01:44:00;5.7;;;3.6;;
23252;SDS011;11795;47.054;15.408;2024-02-15T01:46:06;5.7;;;3.6;;
23252;SDS011;11795;47.054;15.408;2024-02-15T01:48:01;5.7;;;3.6;;
23252;SDS011;11795;47.054;15.408;2024-02-15T01:50:00;6.9;;;4.2;;
23252;SDS011;11795;47.054;15.408;2024-02-15T01:52:00;6.9;;;4.2;;
23252;SDS011;11795;47.054;15.408;2024-02-15T01:54:01;5.0;;;3.7;;
23252;SDS011;11795;47.054;15.408;2024-02-15T01:56:00;5.0;;;3.7;;
23252;SDS011;11795;47.054;15.408;2024-02-15T01:58:00;5.0;;;3.7;;
23252;SDS011;11795;47.054;15.408;2024-02-15T02:00:00;6.0;;;3.9;;
23252;SDS011;11795;47.054;15.408;2024-02-15T02:02:00;6.0;;;3.9;;
23252;SDS011;11795;47.054;15.408;2024-02-15T02:04:00;6.6;;;3.9;;
23252;SDS011;11795;47.054;15.408;2024-02-15T02:06:00;6.6;;;3.9;;
23252;SDS011;11795;47.054;15.408;2024-02-15T02:08:04;6.6;;;3.9;;
23252;SDS011;11795;47.054;15.408;2024-02-15T02:10:00;5.7;;;3.9;;
23252;SDS011;11795;47.054;15.408;2024-02-15T02:12:00;5.7;;;3.9;;
23252;SDS011;11795;47.054;15.408;2024-02-15T02:14:00;5.1;;;3.6;;
23252;SDS011;11795;47.054;15.408;2024-02-15T02:16:00;5.1;;;3.6;;
23252;SDS011;11795;47.054;15.408;2024-02-15T02:18:00;5.1;;;3.6;;
23252;SDS011;11795;47.054;15.408;2024-02-15T02:20:00;5.7;;;3.6;;
23252;SDS011;11795;47.054;15.408;2024-02-15T02:22:00;5.7;;;3.6;;
23252;SDS011;11795;47.054;15.408;2024-02-15T02:24:00;5.7;;;3.9;;
23252;SDS011;11795;47.054;15.408;2024-02-15T02:26:00;5.7;;;3.9;;
23252;SDS011;11795;47.054;15.408;2024-02-15T02:28:00;5.7;;;3.9;;
23252;SDS011;11795;47.054;15.408;2024-02-15T02:30:00;4.9;;;4.0;;
23252;SDS011;11795;47.054;15.408;2024-02-15T02:32:00;4.9;;;4.0;;
23252;SDS011;11795;47.054;15.408;2024-02-15T02:34:00;4.3;;;3.4;;
23252;SDS011;11795;47.054;15.408;2024-02-15T02:36:00;4.3;;;3.4;;
23252;SDS011;11795;47.054;15.408;2024-02-15T02:38:00;4.3;;;3.4;;
23252;SDS011;11795;47.054;15.408;2024-02-15T02:40:00;4.9;;;3.7;;
23252;SDS011;11795;47.054;15.408;2024-02-15T02:42:00;4.9;;;3.7;;
23252;SDS011;11795;47.054;15.408;2024-02-15T02:44:00;4.4;;;3.5;;
23252;SDS011;11795;47.054;15.408;2024-02-15T02:46:00;4.4;;;3.5;;
23252;SDS011;11795;47.054;15.408;2024-02-15T02:48:00;4.4;;;3.5;;
23252;SDS011;11795;47.054;15.408;2024-02-15T02:50:00;4.2;;;3.4;;
23252;SDS011;11795;47.054;15.408;2024-02-15T02:52:00;4.2;;;3.4;;
23252;SDS011;11795;47.054;15.408;2024-02-15T02:54:01;5.4;;;3.8;;
23252;SDS011;11795;47.054;15.408;2024-02-15T02:56:00;5.4;;;3.8;;
23252;SDS011;11795;47.054;15.408;2024-02-15T02:58:00;5.4;;;3.8;;
23252;SDS011;11795;47.054;15.408;2024-02-15T03:00:01;7.1;;;4.2;;
23252;SDS011;11795;47.054;15.408;2024-02-15T03:02:00;7.1;;;4.2;;
23252;SDS011;11795;47.054;15.408;2024-02-15T03:04:01;7.6;;;5.1;;
23252;SDS011;11795;47.054;15.408;2024-02-15T03:06:01;7.6;;;5.1;;
23252;SDS011;11795;47.054;15.408;2024-02-15T03:08:00;7.6;;;5.1;;
23252;SDS011;11795;47.054;15.408;2024-02-15T03:10:00;6.8;;;4.7;;
23252;SDS011;11795;47.054;15.408;2024-02-15T03:12:01;6.8;;;4.7;;
23252;SDS011;11795;47.054;15.408;2024-02-15T03:14:00;5.9;;;4.5;;
23252;SDS011;11795;47.054;15.408;2024-02-15T03:16:00;5.9;;;4.5;;
23252;SDS011;11795;47.054;15.408;2024-02-15T03:18:00;5.9;;;4.5;;
23252;SDS011;11795;47.054;15.408;2024-02-15T03:20:00;7.4;;;4.7;;
23252;SDS011;11795;47.054;15.408;2024-02-15T03:22:00;7.4;;;4.7;;
23252;SDS011;11795;47.054;15.408;2024-02-15T03:24:00;7.6;;;4.7;;
23252;SDS011;11795;47.054;15.408;2024-02-15T03:26:01;7.6;;;4.7;;
23252;SDS011;11795;47.054;15.408;2024-02-15T03:28:03;7.6;;;4.7;;
23252;SDS011;11795;47.054;15.408;2024-02-15T03:30:00;5.7;;;4.5;;
23252;SDS011;11795;47.054;15.408;2024-02-15T03:32:00;5.7;;;4.5;;
23252;SDS011;11795;47.054;15.408;2024-02-15T03:34:00;6.2;;;4.3;;
23252;SDS011;11795;47.054;15.408;2024-02-15T03:36:00;6.2;;;4.3;;
23252;SDS011;11795;47.054;15.408;2024-02-15T03:38:01;6.2;;;4.3;;
23252;SDS011;11795;47.054;15.408;2024-02-15T03:40:00;5.3;;;3.7;;
23252;SDS011;11795;47.054;15.408;2024-02-15T03:42:00;5.3;;;3.7;;
23252;SDS011;11795;47.054;15.408;2024-02-15T03:44:00;4.9;;;3.8;;
23252;SDS011;11795;47.054;15.408;2024-02-15T03:46:00;4.9;;;3.8;;
23252;SDS011;11795;47.054;15.408;2024-02-15T03:48:00;4.9;;;3.8;;
23252;SDS011;11795;47.054;15.408;2024-02-15T03:50:00;6.8;;;3.9;;
23252;SDS011;11795;47.054;15.408;2024-02-15T03:52:00;6.8;;;3.9;;
23252;SDS011;11795;47.054;15.408;2024-02-15T03:54:00;6.9;;;4.7;;
23252;SDS011;11795;47.054;15.408;2024-02-15T03:56:00;6.9;;;4.7;;
23252;SDS011;11795;47.054;15.408;2024-02-15T03:58:00;6.9;;;4.7;;
23252;SDS011;11795;47.054;15.408;2024-02-15T04:00:00;7.5;;;4.5;;
23252;SDS011;11795;47.054;15.408;2024-02-15T04:02:00;7.5;;;4.5;;
23252;SDS011;11795;47.054;15.408;2024-02-15T04:04:02;5.6;;;3.8;;
23252;SDS011;11795;47.054;15.408;2024-02-15T04:06:00;5.6;;;3.8;;
23252;SDS011;11795;47.054;15.408;2024-02-15T04:08:03;5.6;;;3.8;;
23252;SDS011;11795;47.054;15.408;2024-02-15T04:10:00;6.7;;;4.2;;
23252;SDS011;11795;47.054;15.408;2024-02-15T04:12:01;6.7;;;4.2;;
23252;SDS011;11795;47.054;15.408;2024-02-15T04:14:00;5.5;;;4.4;;
23252;SDS011;11795;47.054;15.408;2024-02-15T04:16:00;5.5;;;4.4;;
23252;SDS011;11795;47.054;15.408;2024-02-15T04:18:00;5.5;;;4.4;;
23252;SDS011;11795;47.054;15.408;2024-02-15T04:20:01;6.9;;;4.2;;
23252;SDS011;11795;47.054;15.408;2024-02-15T04:22:00;6.9;;;4.2;;
23252;SDS011;11795;47.054;15.408;2024-02-15T04:24:00;8.2;;;5.4;;
23252;SDS011;11795;47.054;15.408;2024-02-15T04:26:00;8.2;;;5.4;;
23252;SDS011;11795;47.054;15.408;2024-02-15T04:28:03;8.2;;;5.4;;
23252;SDS011;11795;47.054;15.408;2024-02-15T04:30:00;8.1;;;5.5;;
23252;SDS011;11795;47.054;15.408;2024-02-15T04:32:00;8.1;;;5.5;;
23252;SDS011;11795;47.054;15.408;2024-02-15T04:34:00;9.1;;;6.3;;
23252;SDS011;11795;47.054;15.408;2024-02-15T04:36:02;9.1;;;6.3;;
23252;SDS011;11795;47.054;15.408;2024-02-15T04:38:00;9.1;;;6.3;;
23252;SDS011;11795;47.054;15.408;2024-02-15T04:40:08;8.2;;;6.1;;
23252;SDS011;11795;47.054;15.408;2024-02-15T04:42:00;8.2;;;6.1;;
23252;SDS011;11795;47.054;15.408;2024-02-15T04:44:00;11.8;;;7.6;;
23252;SDS011;11795;47.054;15.408;2024-02-15T04:46:00;11.8;;;7.6;;
23252;SDS011;11795;47.054;15.408;2024-02-15T04:48:02;11.8;;;7.6;;
23252;SDS011;11795;47.054;15.408;2024-02-15T04:50:00;12.3;;;7.6;;
23252;SDS011;11795;47.054;15.408;2024-02-15T04:52:02;12.3;;;7.6;;
23252;SDS011;11795;47.054;15.408;2024-02-15T04:54:01;13.3;;;8.4;;
23252;SDS011;11795;47.054;15.408;2024-02-15T04:56:03;13.3;;;8.4;;
23252;SDS011;11795;47.054;15.408;2024-02-15T04:58:00;13.3;;;8.4;;
23252;SDS011;11795;47.054;15.408;2024-02-15T05:00:00;11.5;;;8.0;;
23252;SDS011;11795;47.054;15.408;2024-02-15T05:02:01;11.5;;;8.0;;
23252;SDS011;11795;47.054;15.408;2024-02-15T05:04:00;9.3;;;6.7;;
23252;SDS011;11795;47.054;15.408;2024-02-15T05:06:00;9.3;;;6.7;;
23252;SDS011;11795;47.054;15.408;2024-02-15T05:08:01;9.3;;;6.7;;
23252;SDS011;11795;47.054;15.408;2024-02-15T05:10:06;9.5;;;6.9;;
23252;SDS011;11795;47.054;15.408;2024-02-15T05:12:01;9.5;;;6.9;;
23252;SDS011;11795;47.054;15.408;2024-02-15T05:14:00;10.4;;;7.4;;
23252;SDS011;11795;47.054;15.408;2024-02-15T05:16:00;10.4;;;7.4;;
23252;SDS011;11795;47.054;15.408;2024-02-15T05:18:01;10.4;;;7.4;;
23252;SDS011;11795;47.054;15.408;2024-02-15T05:20:00;8.1;;;6.0;;
23252;SDS011;11795;47.054;15.408;2024-02-15T05:22:01;8.1;;;6.0;;
23252;SDS011;11795;47.054;15.408;2024-02-15T05:24:00;10.4;;;6.7;;
23252;SDS011;11795;47.054;15.408;2024-02-15T05:28:00;10.4;;;6.7;;
23252;SDS011;11795;47.054;15.408;2024-02-15T05:30:00;11.4;;;6.7;;
23252;SDS011;11795;47.054;15.408;2024-02-15T05:32:01;11.4;;;6.7;;
23252;SDS011;11795;47.054;15.408;2024-02-15T05:34:00;10.7;;;6.8;;
23252;SDS011;11795;47.054;15.408;2024-02-15T05:36:02;10.7;;;6.8;;
23252;SDS011;11795;47.054;15.408;2024-02-15T05:38:04;10.7;;;6.8;;
23252;SDS011;11795;47.054;15.408;2024-02-15T05:40:00;12.3;;;7.5;;
23252;SDS011;11795;47.054;15.408;2024-02-15T05:42:00;12.3;;;7.5;;
23252;SDS011;11795;47.054;15.408;2024-02-15T05:44:00;8.9;;;6.4;;
23252;SDS011;11795;47.054;15.408;2024-02-15T05:46:01;8.9;;;6.4;;
23252;SDS011;11795;47.054;15.408;2024-02-15T05:48:02;8.9;;;6.4;;
23252;SDS011;11795;47.054;15.408;2024-02-15T05:50:06;10.3;;;6.6;;
23252;SDS011;11795;47.054;15.408;2024-02-15T05:52:00;10.3;;;6.6;;
23252;SDS011;11795;47.054;15.408;2024-02-15T05:54:00;9.1;;;6.0;;
23252;SDS011;11795;47.054;15.408;2024-02-15T05:56:01;9.1;;;6.0;;
23252;SDS011;11795;47.054;15.408;2024-02-15T05:58:02;9.1;;;6.0;;
23252;SDS011;11795;47.054;15.408;2024-02-15T06:00:02;12.0;;;7.0;;
23252;SDS011;11795;47.054;15.408;2024-02-15T06:02:01;12.0;;;7.0;;
23252;SDS011;11795;47.054;15.408;2024-02-15T06:04:00;13.0;;;7.0;;
23252;SDS011;11795;47.054;15.408;2024-02-15T06:06:02;13.0;;;7.0;;
23252;SDS011;11795;47.054;15.408;2024-02-15T06:08:00;13.0;;;7.0;;
23252;SDS011;11795;47.054;15.408;2024-02-15T06:10:03;12.2;;;7.7;;
23252;SDS011;11795;47.054;15.408;2024-02-15T06:12:00;12.2;;;7.7;;
23252;SDS011;11795;47.054;15.408;2024-02-15T06:14:00;37.3;;;18.6;;
23252;SDS011;11795;47.054;15.408;2024-02-15T06:16:00;37.3;;;18.6;;
23252;SDS011;11795;47.054;15.408;2024-02-15T06:18:00;37.3;;;18.6;;
23252;SDS011;11795;47.054;15.408;2024-02-15T06:20:00;39.6;;;21.3;;
23252;SDS011;11795;47.054;15.408;2024-02-15T06:22:01;39.6;;;21.3;;
23252;SDS011;11795;47.054;15.408;2024-02-15T06:24:00;37.6;;;20.1;;
23252;SDS011;11795;47.054;15.408;2024-02-15T06:26:02;37.6;;;20.1;;
23252;SDS011;11795;47.054;15.408;2024-02-15T06:28:02;37.6;;;20.1;;
23252;SDS011;11795;47.054;15.408;2024-02-15T06:40:00;18.1;;;10.0;;
23252;SDS011;11795;47.054;15.408;2024-02-15T06:42:01;18.1;;;10.0;;
23252;SDS011;11795;47.054;15.408;2024-02-15T06:44:01;14.5;;;9.8;;
23252;SDS011;11795;47.054;15.408;2024-02-15T06:46:01;14.5;;;9.8;;
23252;SDS011;11795;47.054;15.408;2024-02-15T06:48:00;14.5;;;9.8;;
23252;SDS011;11795;47.054;15.408;2024-02-15T06:50:00;13.0;;;9.5;;
23252;SDS011;11795;47.054;15.408;2024-02-15T06:52:02;13.0;;;9.5;;
23252;SDS011;11795;47.054;15.408;2024-02-15T06:54:00;13.3;;;9.4;;
23252;SDS011;11795;47.054;15.408;2024-02-15T06:56:00;13.3;;;9.4;;
23252;SDS011;11795;47.054;15.408;2024-02-15T06:58:00;13.3;;;9.4;;
23252;SDS011;11795;47.054;15.408;2024-02-15T07:00:02;11.7;;;8.6;;
23252;SDS011;11795;47.054;15.408;2024-02-15T07:02:00;11.7;;;8.6;;
23252;SDS011;11795;47.054;15.408;2024-02-15T07:04:03;12.5;;;8.0;;
23252;SDS011;11795;47.054;15.408;2024-02-15T07:06:00;12.5;;;8.0;;
23252;SDS011;11795;47.054;15.408;2024-02-15T07:08:01;12.5;;;8.0;;
23252;SDS011;11795;47.054;15.408;2024-02-15T07:10:03;14.3;;;9.1;;
23252;SDS011;11795;47.054;15.408;2024-02-15T07:12:00;14.3;;;9.1;;
23252;SDS011;11795;47.054;15.408;2024-02-15T07:14:01;38.0;;;13.5;;
23252;SDS011;11795;47.054;15.408;2024-02-15T07:16:01;38.0;;;13.5;;
23252;SDS011;11795;47.054;15.408;2024-02-15T07:18:01;38.0;;;13.5;;
23252;SDS011;11795;47.054;15.408;2024-02-15T07:20:00;16.2;;;8.8;;
23252;SDS011;11795;47.054;15.408;2024-02-15T07:22:01;16.2;;;8.8;;
23252;SDS011;11795;47.054;15.408;2024-02-15T07:24:00;10.9;;;7.4;;
23252;SDS011;11795;47.054;15.408;2024-02-15T07:26:00;10.9;;;7.4;;
23252;SDS011;11795;47.054;15.408;2024-02-15T07:28:00;10.9;;;7.4;;
23252;SDS011;11795;47.054;15.408;2024-02-15T07:30:00;10.9;;;7.2;;
23252;SDS011;11795;47.054;15.408;2024-02-15T07:32:01;10.9;;;7.2;;
23252;SDS011;11795;47.054;15.408;2024-02-15T07:34:01;10.9;;;7.2;;
23252;SDS011;11795;47.054;15.408;2024-02-15T07:36:00;13.2;;;7.0;;
23252;SDS011;11795;47.054;15.408;2024-02-15T07:38:02;13.2;;;7.0;;
23252;SDS011;11795;47.054;15.408;2024-02-15T07:40:00;11.0;;;6.6;;
23252;SDS011;11795;47.054;15.408;2024-02-15T07:42:00;11.0;;;6.6;;
23252;SDS011;11795;47.054;15.408;2024-02-15T07:44:01;11.0;;;6.6;;
23252;SDS011;11795;47.054;15.408;2024-02-15T07:46:01;9.2;;;5.5;;
23252;SDS011;11795;47.054;15.408;2024-02-15T07:48:01;9.2;;;5.5;;
23252;SDS011;11795;47.054;15.408;2024-02-15T07:50:01;9.8;;;5.8;;
23252;SDS011;11795;47.054;15.408;2024-02-15T07:52:00;9.8;;;5.8;;
23252;SDS011;11795;47.054;15.408;2024-02-15T07:54:01;9.8;;;5.8;;
23252;SDS011;11795;47.054;15.408;2024-02-15T07:56:00;10.8;;;5.5;;
23252;SDS011;11795;47.054;15.408;2024-02-15T07:58:02;10.8;;;5.5;;
23252;SDS011;11795;47.054;15.408;2024-02-15T08:00:01;8.2;;;5.3;;
23252;SDS011;11795;47.054;15.408;2024-02-15T08:02:00;8.2;;;5.3;;
23252;SDS011;11795;47.054;15.408;2024-02-15T08:04:00;8.2;;;5.3;;
23252;SDS011;11795;47.054;15.408;2024-02-15T08:06:00;8.2;;;5.3;;
23252;SDS011;11795;47.054;15.408;2024-02-15T08:08:01;8.2;;;5.3;;
23252;SDS011;11795;47.054;15.408;2024-02-15T08:10:01;7.0;;;4.9;;
23252;SDS011;11795;47.054;15.408;2024-02-15T08:12:03;7.0;;;4.9;;
23252;SDS011;11795;47.054;15.408;2024-02-15T08:14:00;7.0;;;4.9;;
23252;SDS011;11795;47.054;15.408;2024-02-15T08:16:01;6.7;;;4.7;;
23252;SDS011;11795;47.054;15.408;2024-02-15T08:18:05;6.7;;;4.7;;
23252;SDS011;11795;47.054;15.408;2024-02-15T08:20:01;6.1;;;3.8;;
23252;SDS011;11795;47.054;15.408;2024-02-15T08:22:04;6.1;;;3.8;;
23252;SDS011;11795;47.054;15.408;2024-02-15T08:24:01;6.1;;;3.8;;
23252;SDS011;11795;47.054;15.408;2024-02-15T08:26:01;4.4;;;3.3;;
23252;SDS011;11795;47.054;15.408;2024-02-15T08:28:05;4.4;;;3.3;;
23252;SDS011;11795;47.054;15.408;2024-02-15T08:30:03;5.1;;;3.5;;
23252;SDS011;11795;47.054;15.408;2024-02-15T08:32:00;5.1;;;3.5;;
23252;SDS011;11795;47.054;15.408;2024-02-15T08:34:01;5.1;;;3.5;;
23252;SDS011;11795;47.054;15.408;2024-02-15T08:36:02;6.3;;;3.7;;
23252;SDS011;11795;47.054;15.408;2024-02-15T08:38:05;6.3;;;3.7;;
23252;SDS011;11795;47.054;15.408;2024-02-15T08:40:03;7.3;;;4.1;;
23252;SDS011;11795;47.054;15.408;2024-02-15T08:42:01;7.3;;;4.1;;
23252;SDS011;11795;47.054;15.408;2024-02-15T08:44:01;7.3;;;4.1;;
23252;SDS011;11795;47.054;15.408;2024-02-15T08:46:01;6.6;;;3.8;;
23252;SDS011;11795;47.054;15.408;2024-02-15T08:48:04;6.6;;;3.8;;
23252;SDS011;11795;47.054;15.408;2024-02-15T08:50:00;6.7;;;4.1;;
23252;SDS011;11795;47.054;15.408;2024-02-15T08:52:00;6.7;;;4.1;;
23252;SDS011;11795;47.054;15.408;2024-02-15T08:54:00;6.7;;;4.1;;
23252;SDS011;11795;47.054;15.408;2024-02-15T08:56:01;6.8;;;4.5;;
23252;SDS011;11795;47.054;15.408;2024-02-15T08:58:00;6.8;;;4.5;;
23252;SDS011;11795;47.054;15.408;2024-02-15T09:00:02;7.7;;;5.0;;
23252;SDS011;11795;47.054;15.408;2024-02-15T09:02:00;7.7;;;5.0;;
23252;SDS011;11795;47.054;15.408;2024-02-15T09:04:01;7.7;;;5.0;;
23252;SDS011;11795;47.054;15.408;2024-02-15T09:06:04;9.0;;;5.7;;
23252;SDS011;11795;47.054;15.408;2024-02-15T09:08:00;9.0;;;5.7;;
23252;SDS011;11795;47.054;15.408;2024-02-15T09:10:01;9.4;;;5.2;;
23252;SDS011;11795;47.054;15.408;2024-02-15T09:12:01;9.4;;;5.2;;
23252;SDS011;11795;47.054;15.408;2024-02-15T09:14:00;9.4;;;5.2;;
23252;SDS011;11795;47.054;15.408;2024-02-15T09:16:01;8.9;;;5.3;;
23252;SDS011;11795;47.054;15.408;2024-02-15T09:18:01;8.9;;;5.3;;
23252;SDS011;11795;47.054;15.408;2024-02-15T09:20:01;8.1;;;4.8;;
23252;SDS011;11795;47.054;15.408;2024-02-15T09:22:00;8.1;;;4.8;;
23252;SDS011;11795;47.054;15.408;2024-02-15T09:24:01;8.1;;;4.8;;
23252;SDS011;11795;47.054;15.408;2024-02-15T09:26:00;5.2;;;4.1;;
23252;SDS011;11795;47.054;15.408;2024-02-15T09:28:01;5.2;;;4.1;;
23252;SDS011;11795;47.054;15.408;2024-02-15T09:30:00;7.1;;;4.4;;
23252;SDS011;11795;47.054;15.408;2024-02-15T09:32:02;7.1;;;4.4;;
23252;SDS011;11795;47.054;15.408;2024-02-15T09:34:00;7.1;;;4.4;;
23252;SDS011;11795;47.054;15.408;2024-02-15T09:36:00;8.9;;;4.5;;
23252;SDS011;11795;47.054;15.408;2024-02-15T09:38:00;8.9;;;4.5;;
23252;SDS011;11795;47.054;15.408;2024-02-15T09:40:08;5.6;;;3.6;;
23252;SDS011;11795;47.054;15.408;2024-02-15T09:42:00;5.6;;;3.6;;
23252;SDS011;11795;47.054;15.408;2024-02-15T09:44:01;5.6;;;3.6;;
23252;SDS011;11795;47.054;15.408;2024-02-15T09:46:04;7.0;;;4.3;;
23252;SDS011;11795;47.054;15.408;2024-02-15T09:48:01;7.0;;;4.3;;
23252;SDS011;11795;47.054;15.408;2024-02-15T09:50:00;5.6;;;3.8;;
23252;SDS011;11795;47.054;15.408;2024-02-15T09:52:00;5.6;;;3.8;;
23252;SDS011;11795;47.054;15.408;2024-02-15T09:54:01;5.6;;;3.8;;
23252;SDS011;11795;47.054;15.408;2024-02-15T09:56:04;5.9;;;3.7;;
23252;SDS011;11795;47.054;15.408;2024-02-15T09:58:00;5.9;;;3.7;;
23252;SDS011;11795;47.054;15.408;2024-02-15T10:00:00;8.4;;;3.9;;
23252;SDS011;11795;47.054;15.408;2024-02-15T10:02:00;8.4;;;3.9;;
23252;SDS011;11795;47.054;15.408;2024-02-15T10:04:00;8.4;;;3.9;;
23252;SDS011;11795;47.054;15.408;2024-02-15T10:06:00;8.2;;;4.2;;
23252;SDS011;11795;47.054;15.408;2024-02-15T10:08:01;8.2;;;4.2;;
23252;SDS011;11795;47.054;15.408;2024-02-15T10:10:14;6.1;;;4.0;;
23252;SDS011;11795;47.054;15.408;2024-02-15T10:12:00;6.1;;;4.0;;
23252;SDS011;11795;47.054;15.408;2024-02-15T10:14:08;6.1;;;4.0;;
23252;SDS011;11795;47.054;15.408;2024-02-15T10:16:05;8.0;;;4.2;;
23252;SDS011;11795;47.054;15.408;2024-02-15T10:18:01;8.0;;;4.2;;
23252;SDS011;11795;47.054;15.408;2024-02-15T10:20:04;7.9;;;4.1;;
23252;SDS011;11795;47.054;15.408;2024-02-15T10:22:05;7.9;;;4.1;;
23252;SDS011;11795;47.054;15.408;2024-02-15T10:24:04;7.9;;;4.1;;
23252;SDS011;11795;47.054;15.408;2024-02-15T10:26:03;7.0;;;3.9;;
23252;SDS011;11795;47.054;15.408;2024-02-15T10:28:01;7.0;;;3.9;;
23252;SDS011;11795;47.054;15.408;2024-02-15T10:32:01;6.5;;;3.7;;
23252;SDS011;11795;47.054;15.408;2024-02-15T10:34:02;6.5;;;3.7;;
23252;SDS011;11795;47.054;15.408;2024-02-15T10:36:08;6.2;;;4.0;;
23252;SDS011;11795;47.054;15.408;2024-02-15T10:38:08;6.2;;;4.0;;
23252;SDS011;11795;47.054;15.408;2024-02-15T10:40:04;10.8;;;4.1;;
23252;SDS011;11795;47.054;15.408;2024-02-15T10:42:00;10.8;;;4.1;;
23252;SDS011;11795;47.054;15.408;2024-02-15T10:44:00;10.8;;;4.1;;
23252;SDS011;11795;47.054;15.408;2024-02-15T10:46:00;8.6;;;3.9;;
23252;SDS011;11795;47.054;15.408;2024-02-15T10:48:00;8.6;;;3.9;;
23252;SDS011;11795;47.054;15.408;2024-02-15T10:50:00;9.0;;;3.9;;
23252;SDS011;11795;47.054;15.408;2024-02-15T10:52:04;9.0;;;3.9;;
23252;SDS011;11795;47.054;15.408;2024-02-15T10:54:02;9.0;;;3.9;;
23252;SDS011;11795;47.054;15.408;2024-02-15T10:56:04;8.4;;;4.1;;
23252;SDS011;11795;47.054;15.408;2024-02-15T10:58:03;8.4;;;4.1;;
23252;SDS011;11795;47.054;15.408;2024-02-15T11:00:01;11.5;;;5.0;;
23252;SDS011;11795;47.054;15.408;2024-02-15T11:02:01;11.5;;;5.0;;
23252;SDS011;11795;47.054;15.408;2024-02-15T11:04:01;11.5;;;5.0;;
23252;SDS011;11795;47.054;15.408;2024-02-15T11:06:00;9.3;;;4.8;;
23252;SDS011;11795;47.054;15.408;2024-02-15T11:08:01;9.3;;;4.8;;
23252;SDS011;11795;47.054;15.408;2024-02-15T11:10:01;10.5;;;5.0;;
23252;SDS011;11795;47.054;15.408;2024-02-15T11:12:01;10.5;;;5.0;;
23252;SDS011;11795;47.054;15.408;2024-02-15T11:16:01;11.3;;;4.7;;
23252;SDS011;11795;47.054;15.408;2024-02-15T11:18:00;11.3;;;4.7;;
23252;SDS011;11795;47.054;15.408;2024-02-15T11:20:00;8.5;;;4.4;;
23252;SDS011;11795;47.054;15.408;2024-02-15T11:22:07;8.5;;;4.4;;
23252;SDS011;11795;47.054;15.408;2024-02-15T11:26:00;7.1;;;4.2;;
23252;SDS011;11795;47.054;15.408;2024-02-15T11:30:04;11.1;;;4.5;;
23252;SDS011;11795;47.054;15.408;2024-02-15T11:32:00;11.1;;;4.5;;
23252;SDS011;11795;47.054;15.408;2024-02-15T11:34:07;11.1;;;4.5;;
23252;SDS011;11795;47.054;15.408;2024-02-15T11:36:02;9.7;;;4.1;;
23252;SDS011;11795;47.054;15.408;2024-02-15T11:38:04;9.7;;;4.1;;
23252;SDS011;11795;47.054;15.408;2024-02-15T11:40:01;6.8;;;2.8;;
23252;SDS011;11795;47.054;15.408;2024-02-15T11:44:01;6.8;;;2.8;;
23252;SDS011;11795;47.054;15.408;2024-02-15T11:46:00;8.9;;;3.2;;
23252;SDS011;11795;47.054;15.408;2024-02-15T11:48:01;8.9;;;3.2;;
23252;SDS011;11795;47.054;15.408;2024-02-15T11:50:01;8.8;;;3.2;;
23252;SDS011;11795;47.054;15.408;2024-02-15T11:52:08;8.8;;;3.2;;
23252;SDS011;11795;47.054;15.408;2024-02-15T11:54:04;8.8;;;3.2;;
23252;SDS011;11795;47.054;15.408;2024-02-15T11:56:00;6.2;;;3.1;;
23252;SDS011;11795;47.054;15.408;2024-02-15T11:58:04;6.2;;;3.1;;
23252;SDS011;11795;47.054;15.408;2024-02-15T12:20:02;4.8;;;3.2;;
23252;SDS011;11795;47.054;15.408;2024-02-15T12:22:00;4.8;;;3.2;;
23252;SDS011;11795;47.054;15.408;2024-02-15T12:24:00;4.8;;;3.2;;
23252;SDS011;11795;47.054;15.408;2024-02-15T12:26:00;8.1;;;3.0;;
23252;SDS011;11795;47.054;15.408;2024-02-15T12:28:01;8.1;;;3.0;;
23252;SDS011;11795;47.054;15.408;2024-02-15T12:30:00;7.1;;;3.1;;
23252;SDS011;11795;47.054;15.408;2024-02-15T12:32:00;7.1;;;3.1;;
23252;SDS011;11795;47.054;15.408;2024-02-15T12:34:01;7.1;;;3.1;;
23252;SDS011;11795;47.054;15.408;2024-02-15T12:36:03;6.5;;;3.3;;
23252;SDS011;11795;47.054;15.408;2024-02-15T12:38:02;6.5;;;3.3;;
23252;SDS011;11795;47.054;15.408;2024-02-15T12:40:09;5.0;;;2.7;;
23252;SDS011;11795;47.054;15.408;2024-02-15T12:42:01;5.0;;;2.7;;
23252;SDS011;11795;47.054;15.408;2024-02-15T12:44:01;5.0;;;2.7;;
23252;SDS011;11795;47.054;15.408;2024-02-15T12:46:00;5.2;;;2.7;;
23252;SDS011;11795;47.054;15.408;2024-02-15T12:48:02;5.2;;;2.7;;
23252;SDS011;11795;47.054;15.408;2024-02-15T12:54:07;4.9;;;2.7;;
23252;SDS011;11795;47.054;15.408;2024-02-15T12:56:00;5.1;;;2.6;;